Time,TemperatureF,DewpointF,PressureIn,WindDirection,WindDirectionDegrees,WindSpeedMPH,WindSpeedGustMPH,Humidity,HourlyPrecipIn,Conditions,Clouds,dailyrainin,SolarRadiationWatts/m^2,SoftwareType,DateUTC
2013-10-03 00:02:00,72.0,69.0,-100.00,ENE,75,1.0,5.0,89,0.00,,,0.00,0.000000,,2013-10-03 05:02:00,
2013-10-03 00:23:00,72.0,69.0,-100.00,ENE,75,1.0,5.0,89,0.00,,,0.00,0.000000,,2013-10-03 05:23:00,
2013-10-03 00:33:00,72.0,69.0,-100.00,ENE,75,1.0,5.0,89,0.00,,,0.00,0.000000,,2013-10-03 05:33:00,
2013-10-03 00:43:00,72.0,69.0,-100.00,ENE,75,1.0,5.0,89,0.00,,,0.00,0.000000,,2013-10-03 05:43:00,
2013-10-03 00:52:00,72.0,69.0,-100.00,ENE,75,1.0,5.0,89,0.00,,,0.00,0.000000,,2013-10-03 05:52:00,
2013-10-03 01:02:00,71.0,68.0,-100.00,NE,45,1.0,4.0,90,0.00,,,0.00,0.000000,,2013-10-03 06:02:00,
2013-10-03 01:22:00,71.0,68.0,-100.00,NE,45,1.0,4.0,90,0.00,,,0.00,0.000000,,2013-10-03 06:22:00,
2013-10-03 01:32:00,71.0,68.0,-100.00,NE,45,1.0,4.0,90,0.00,,,0.00,0.000000,,2013-10-03 06:32:00,
2013-10-03 01:42:00,71.0,68.0,-100.00,NE,45,1.0,4.0,90,0.00,,,0.00,0.000000,,2013-10-03 06:42:00,
2013-10-03 01:52:00,71.0,68.0,-100.00,NE,45,1.0,4.0,90,0.00,,,0.00,0.000000,,2013-10-03 06:52:00,
2013-10-03 02:02:00,71.0,68.0,-100.00,East,89,2.0,5.0,90,0.00,,,0.00,0.000000,,2013-10-03 07:02:00,
2013-10-03 02:22:00,71.0,68.0,-100.00,East,89,2.0,5.0,90,0.00,,,0.00,0.000000,,2013-10-03 07:22:00,
2013-10-03 02:32:00,71.0,68.0,-100.00,East,89,2.0,5.0,90,0.00,,,0.00,0.000000,,2013-10-03 07:32:00,
2013-10-03 02:42:00,71.0,68.0,-100.00,East,89,2.0,5.0,90,0.00,,,0.00,0.000000,,2013-10-03 07:42:00,
2013-10-03 02:52:00,71.0,68.0,-100.00,East,89,2.0,5.0,90,0.00,,,0.00,0.000000,,2013-10-03 07:52:00,
2013-10-03 03:02:00,72.0,69.0,-100.00,East,86,2.0,5.0,89,0.00,,,0.00,0.000000,,2013-10-03 08:02:00,
2013-10-03 03:22:00,72.0,69.0,-100.00,East,86,2.0,5.0,89,0.00,,,0.00,0.000000,,2013-10-03 08:22:00,
2013-10-03 03:32:00,72.0,69.0,-100.00,East,86,2.0,5.0,89,0.00,,,0.00,0.000000,,2013-10-03 08:32:00,
2013-10-03 03:42:00,72.0,69.0,-100.00,East,86,2.0,5.0,89,0.00,,,0.00,0.000000,,2013-10-03 08:42:00,
2013-10-03 03:52:00,72.0,69.0,-100.00,East,86,2.0,5.0,89,0.00,,,0.00,0.000000,,2013-10-03 08:52:00,
2013-10-03 04:02:00,71.0,68.0,-100.00,ESE,112,2.0,5.0,90,0.01,,,0.01,0.000000,,2013-10-03 09:02:00,
2013-10-03 04:43:00,71.0,68.0,-100.00,ESE,112,2.0,5.0,90,0.01,,,0.01,0.000000,,2013-10-03 09:43:00,
2013-10-03 04:53:00,71.0,68.0,-100.00,ESE,112,2.0,5.0,90,0.01,,,0.01,0.000000,,2013-10-03 09:53:00,
2013-10-03 05:02:00,71.0,68.0,-100.00,ESE,116,2.0,5.0,91,0.01,,,0.02,0.000000,,2013-10-03 10:02:00,
2013-10-03 05:23:00,71.0,68.0,-100.00,ESE,116,2.0,5.0,91,0.01,,,0.02,0.000000,,2013-10-03 10:23:00,
2013-10-03 05:33:00,71.0,68.0,-100.00,ESE,116,2.0,5.0,91,0.01,,,0.02,0.000000,,2013-10-03 10:33:00,
2013-10-03 05:43:00,71.0,68.0,-100.00,ESE,116,2.0,5.0,91,0.01,,,0.02,0.000000,,2013-10-03 10:43:00,
2013-10-03 05:52:00,71.0,68.0,-100.00,ESE,116,2.0,5.0,91,0.01,,,0.02,0.000000,,2013-10-03 10:52:00,
2013-10-03 06:23:00,70.0,67.0,-100.00,ENE,78,1.0,5.0,91,0.00,,,0.02,0.000000,,2013-10-03 11:23:00,
2013-10-03 06:33:00,70.0,67.0,-100.00,ENE,78,1.0,5.0,91,0.00,,,0.02,0.000000,,2013-10-03 11:33:00,
2013-10-03 06:42:00,70.0,67.0,-100.00,ENE,78,1.0,5.0,91,0.00,,,0.02,0.000000,,2013-10-03 11:42:00,
2013-10-03 06:52:00,70.0,67.0,-100.00,ENE,78,1.0,5.0,91,0.00,,,0.02,0.000000,,2013-10-03 11:52:00,
2013-10-03 07:01:00,70.0,67.0,-100.00,ENE,78,1.0,5.0,91,0.00,,,0.02,0.000000,,2013-10-03 12:01:00,
2013-10-03 07:22:00,69.0,67.0,-100.00,ENE,73,1.0,2.0,92,0.00,,,0.02,0.000000,,2013-10-03 12:22:00,
2013-10-03 07:32:00,69.0,67.0,-100.00,ENE,73,1.0,2.0,92,0.00,,,0.02,0.000000,,2013-10-03 12:32:00,
2013-10-03 07:42:00,69.0,67.0,-100.00,ENE,73,1.0,2.0,92,0.00,,,0.02,0.000000,,2013-10-03 12:42:00,
2013-10-03 07:52:00,69.0,67.0,-100.00,ENE,73,1.0,2.0,92,0.00,,,0.02,0.000000,,2013-10-03 12:52:00,
2013-10-03 08:01:00,69.0,67.0,-100.00,ENE,73,1.0,2.0,92,0.00,,,0.02,0.000000,,2013-10-03 13:01:00,
2013-10-03 08:02:00,69.0,67.0,-100.00,East,83,2.0,4.0,92,0.00,,,0.02,13.000000,,2013-10-03 13:02:00,
2013-10-03 08:42:00,69.0,67.0,-100.00,East,83,2.0,4.0,92,0.00,,,0.02,13.000000,,2013-10-03 13:42:00,
2013-10-03 08:52:00,69.0,67.0,-100.00,East,83,2.0,4.0,92,0.00,,,0.02,13.000000,,2013-10-03 13:52:00,
2013-10-03 09:42:00,72.0,70.0,-100.00,ESE,109,2.0,5.0,92,0.00,,,0.02,63.000000,,2013-10-03 14:42:00,
2013-10-03 09:52:00,72.0,70.0,-100.00,ESE,109,2.0,5.0,92,0.00,,,0.02,63.000000,,2013-10-03 14:52:00,
2013-10-03 10:01:00,72.0,70.0,-100.00,ESE,109,2.0,5.0,92,0.00,,,0.02,63.000000,,2013-10-03 15:01:00,
2013-10-03 10:02:00,73.0,70.0,-100.00,ESE,111,3.0,5.0,89,0.00,,,0.02,106.000000,,2013-10-03 15:02:00,
2013-10-03 10:22:00,73.0,70.0,-100.00,ESE,111,3.0,5.0,89,0.00,,,0.02,106.000000,,2013-10-03 15:22:00,
2013-10-03 10:33:00,73.0,70.0,-100.00,ESE,111,3.0,5.0,89,0.00,,,0.02,106.000000,,2013-10-03 15:33:00,
2013-10-03 10:43:00,73.0,70.0,-100.00,ESE,111,3.0,5.0,89,0.00,,,0.02,106.000000,,2013-10-03 15:43:00,
2013-10-03 10:54:00,73.0,70.0,-100.00,ESE,111,3.0,5.0,89,0.00,,,0.02,106.000000,,2013-10-03 15:54:00,
2013-10-03 11:02:00,75.0,70.0,-100.00,SE,129,3.0,6.0,84,0.00,,,0.02,147.000000,,2013-10-03 16:02:00,
2013-10-03 11:23:00,75.0,70.0,-100.00,SE,129,3.0,6.0,84,0.00,,,0.02,147.000000,,2013-10-03 16:23:00,
2013-10-03 11:33:00,75.0,70.0,-100.00,SE,129,3.0,6.0,84,0.00,,,0.02,147.000000,,2013-10-03 16:33:00,
2013-10-03 11:43:00,75.0,70.0,-100.00,SE,129,3.0,6.0,84,0.00,,,0.02,147.000000,,2013-10-03 16:43:00,
2013-10-03 11:53:00,75.0,70.0,-100.00,SE,129,3.0,6.0,84,0.00,,,0.02,147.000000,,2013-10-03 16:53:00,
2013-10-03 12:22:00,78.0,71.0,-100.00,SE,139,4.0,7.0,78,0.00,,,0.02,277.000000,,2013-10-03 17:22:00,
2013-10-03 12:33:00,78.0,71.0,-100.00,SE,139,4.0,7.0,78,0.00,,,0.02,277.000000,,2013-10-03 17:33:00,
2013-10-03 12:42:00,78.0,71.0,-100.00,SE,139,4.0,7.0,78,0.00,,,0.02,277.000000,,2013-10-03 17:42:00,
2013-10-03 12:52:00,78.0,71.0,-100.00,SE,139,4.0,7.0,78,0.00,,,0.02,277.000000,,2013-10-03 17:52:00,
2013-10-03 13:01:00,78.0,71.0,-100.00,SE,139,4.0,7.0,78,0.00,,,0.02,277.000000,,2013-10-03 18:01:00,
2013-10-03 13:22:00,81.0,70.0,-100.00,SE,146,4.0,8.0,70,0.00,,,0.02,384.000000,,2013-10-03 18:22:00,
2013-10-03 13:32:00,81.0,70.0,-100.00,SE,146,4.0,8.0,70,0.00,,,0.02,384.000000,,2013-10-03 18:32:00,
2013-10-03 13:42:00,81.0,70.0,-100.00,SE,146,4.0,8.0,70,0.00,,,0.02,384.000000,,2013-10-03 18:42:00,
2013-10-03 13:52:00,81.0,70.0,-100.00,SE,146,4.0,8.0,70,0.00,,,0.02,384.000000,,2013-10-03 18:52:00,
2013-10-03 14:01:00,81.0,70.0,-100.00,SE,146,4.0,8.0,70,0.00,,,0.02,384.000000,,2013-10-03 19:01:00,
2013-10-03 14:02:00,82.0,71.0,-100.00,ESE,117,4.0,10.0,69,0.00,,,0.02,399.000000,,2013-10-03 19:02:00,
2013-10-03 14:22:00,82.0,71.0,-100.00,ESE,117,4.0,10.0,69,0.00,,,0.02,399.000000,,2013-10-03 19:22:00,
2013-10-03 14:32:00,82.0,71.0,-100.00,ESE,117,4.0,10.0,69,0.00,,,0.02,399.000000,,2013-10-03 19:32:00,
2013-10-03 14:42:00,82.0,71.0,-100.00,ESE,117,4.0,10.0,69,0.00,,,0.02,399.000000,,2013-10-03 19:42:00,
2013-10-03 14:52:00,82.0,71.0,-100.00,ESE,117,4.0,10.0,69,0.00,,,0.02,399.000000,,2013-10-03 19:52:00,
2013-10-03 15:02:00,86.0,70.0,-100.00,South,183,4.0,8.0,59,0.00,,,0.02,544.000000,,2013-10-03 20:02:00,
2013-10-03 15:22:00,86.0,70.0,-100.00,South,183,4.0,8.0,59,0.00,,,0.02,544.000000,,2013-10-03 20:22:00,
2013-10-03 15:32:00,86.0,70.0,-100.00,South,183,4.0,8.0,59,0.00,,,0.02,544.000000,,2013-10-03 20:32:00,
2013-10-03 15:42:00,86.0,70.0,-100.00,South,183,4.0,8.0,59,0.00,,,0.02,544.000000,,2013-10-03 20:42:00,
2013-10-03 15:52:00,86.0,70.0,-100.00,South,183,4.0,8.0,59,0.00,,,0.02,544.000000,,2013-10-03 20:52:00,
2013-10-03 16:02:00,84.0,70.0,-100.00,SSE,159,3.0,11.0,64,0.00,,,0.02,379.000000,,2013-10-03 21:02:00,
2013-10-03 16:43:00,84.0,70.0,-100.00,SSE,159,3.0,11.0,64,0.00,,,0.02,379.000000,,2013-10-03 21:43:00,
2013-10-03 16:54:00,84.0,70.0,-100.00,SSE,159,3.0,11.0,64,0.00,,,0.02,379.000000,,2013-10-03 21:54:00,
2013-10-03 17:02:00,86.0,70.0,-100.00,SSE,150,5.0,10.0,60,0.00,,,0.02,419.000000,,2013-10-03 22:02:00,
2013-10-03 17:23:00,86.0,70.0,-100.00,SSE,150,5.0,10.0,60,0.00,,,0.02,419.000000,,2013-10-03 22:23:00,
2013-10-03 17:33:00,86.0,70.0,-100.00,SSE,150,5.0,10.0,60,0.00,,,0.02,419.000000,,2013-10-03 22:33:00,
2013-10-03 17:43:00,86.0,70.0,-100.00,SSE,150,5.0,10.0,60,0.00,,,0.02,419.000000,,2013-10-03 22:43:00,
2013-10-03 17:54:00,86.0,70.0,-100.00,SSE,150,5.0,10.0,60,0.00,,,0.02,419.000000,,2013-10-03 22:54:00,
2013-10-03 18:02:00,84.0,71.0,-100.00,SE,128,3.0,10.0,66,0.00,,,0.02,239.000000,,2013-10-03 23:02:00,
2013-10-03 18:43:00,84.0,71.0,-100.00,SE,128,3.0,10.0,66,0.00,,,0.02,239.000000,,2013-10-03 23:43:00,
2013-10-03 18:52:00,84.0,71.0,-100.00,SE,128,3.0,10.0,66,0.00,,,0.02,239.000000,,2013-10-03 23:52:00,
2013-10-03 19:02:00,79.0,71.0,-100.00,SE,129,2.0,6.0,76,0.00,,,0.02,58.000000,,2013-10-04 00:02:00,
2013-10-03 19:22:00,79.0,71.0,-100.00,SE,129,2.0,6.0,76,0.00,,,0.02,58.000000,,2013-10-04 00:22:00,
2013-10-03 19:32:00,79.0,71.0,-100.00,SE,129,2.0,6.0,76,0.00,,,0.02,58.000000,,2013-10-04 00:32:00,
2013-10-03 19:42:00,79.0,71.0,-100.00,SE,129,2.0,6.0,76,0.00,,,0.02,58.000000,,2013-10-04 00:42:00,
2013-10-03 19:52:00,79.0,71.0,-100.00,SE,129,2.0,6.0,76,0.00,,,0.02,58.000000,,2013-10-04 00:52:00,
2013-10-03 20:02:00,75.0,70.0,-100.00,East,87,2.0,5.0,85,0.00,,,0.02,0.000000,,2013-10-04 01:02:00,
2013-10-03 20:22:00,75.0,70.0,-100.00,East,87,2.0,5.0,85,0.00,,,0.02,0.000000,,2013-10-04 01:22:00,
2013-10-03 20:32:00,75.0,70.0,-100.00,East,87,2.0,5.0,85,0.00,,,0.02,0.000000,,2013-10-04 01:32:00,
2013-10-03 20:42:00,75.0,70.0,-100.00,East,87,2.0,5.0,85,0.00,,,0.02,0.000000,,2013-10-04 01:42:00,
2013-10-03 20:52:00,75.0,70.0,-100.00,East,87,2.0,5.0,85,0.00,,,0.02,0.000000,,2013-10-04 01:52:00,
2013-10-03 21:02:00,73.0,69.0,-100.00,ENE,67,1.0,4.0,87,0.00,,,0.02,0.000000,,2013-10-04 02:02:00,
2013-10-03 21:22:00,73.0,69.0,-100.00,ENE,67,1.0,4.0,87,0.00,,,0.02,0.000000,,2013-10-04 02:22:00,
2013-10-03 21:33:00,73.0,69.0,-100.00,ENE,67,1.0,4.0,87,0.00,,,0.02,0.000000,,2013-10-04 02:33:00,
2013-10-03 21:43:00,73.0,69.0,-100.00,ENE,67,1.0,4.0,87,0.00,,,0.02,0.000000,,2013-10-04 02:43:00,
2013-10-03 21:52:00,73.0,69.0,-100.00,ENE,67,1.0,4.0,87,0.00,,,0.02,0.000000,,2013-10-04 02:52:00,
2013-10-03 22:22:00,72.0,69.0,-100.00,ENE,65,1.0,3.0,89,0.00,,,0.02,0.000000,,2013-10-04 03:22:00,
2013-10-03 22:34:00,72.0,69.0,-100.00,ENE,65,1.0,3.0,89,0.00,,,0.02,0.000000,,2013-10-04 03:34:00,
2013-10-03 22:44:00,72.0,69.0,-100.00,ENE,65,1.0,3.0,89,0.00,,,0.02,0.000000,,2013-10-04 03:44:00,
2013-10-03 23:00:00,72.0,69.0,-100.00,ENE,65,1.0,3.0,89,0.00,,,0.02,0.000000,,2013-10-04 04:00:00,
2013-10-03 23:02:00,71.0,68.0,-100.00,East,86,2.0,4.0,90,0.00,,,0.02,0.000000,,2013-10-04 04:02:00,
2013-10-03 23:51:00,71.0,68.0,-100.00,East,86,2.0,4.0,90,0.00,,,0.02,0.000000,,2013-10-04 04:51:00,